createdAt,value
2023-01-04T00:00:12.438Z,4.18
2023-01-04T00:03:00.676Z,4.87
2023-01-04T00:05:29.076Z,4.53
2023-01-04T00:07:57.035Z,5.15
2023-01-04T00:10:25.306Z,4.78
2023-01-04T00:12:53.242Z,5.45
2023-01-04T00:15:22.814Z,5.40
2023-01-04T00:17:50.735Z,5.50
2023-01-04T00:20:18.877Z,5.78
2023-01-04T00:22:46.855Z,5.72
2023-01-04T00:25:15.271Z,5.93
2023-01-04T00:27:43.358Z,6.50
2023-01-04T00:30:12.583Z,6.10
2023-01-04T00:32:41.893Z,6.60
2023-01-04T00:35:11.063Z,6.53
2023-01-04T00:37:39.388Z,6.60
2023-01-04T00:40:08.578Z,6.20
2023-01-04T00:42:36.561Z,6.60
2023-01-04T00:45:05.102Z,6.32
2023-01-04T00:47:33.023Z,6.65
2023-01-04T00:50:03.781Z,7.78
2023-01-04T00:52:31.759Z,6.97
2023-01-04T00:54:59.988Z,6.82
2023-01-04T00:57:27.947Z,6.93
2023-01-04T00:59:56.322Z,6.50
2023-01-04T01:02:24.329Z,6.90
2023-01-04T01:04:52.811Z,6.80
2023-01-04T01:07:22.053Z,7.88
2023-01-04T01:09:50.220Z,6.95
2023-01-04T01:12:18.345Z,7.38
2023-01-04T01:14:46.605Z,7.03
2023-01-04T01:17:14.598Z,7.20
2023-01-04T01:19:42.877Z,7.13
2023-01-04T01:22:10.830Z,7.07
2023-01-04T01:24:40.600Z,6.78
2023-01-04T01:27:08.520Z,6.45
2023-01-04T01:29:36.647Z,6.73
2023-01-04T01:32:04.776Z,7.20
2023-01-04T01:34:32.991Z,6.60
2023-01-04T01:37:02.631Z,7.32
2023-01-04T01:39:30.766Z,6.97
2023-01-04T01:42:00.469Z,6.83
2023-01-04T01:45:00.938Z,6.85
2023-01-04T01:47:34.469Z,7.25
2023-01-04T01:50:03.055Z,7.07
2023-01-04T01:52:32.947Z,7.00
2023-01-04T01:55:04.343Z,7.10
2023-01-04T01:57:35.557Z,7.65
2023-01-04T02:00:08.754Z,7.68
2023-01-04T02:02:46.716Z,7.43
2023-01-04T02:05:15.169Z,7.20
2023-01-04T02:07:43.268Z,7.80
2023-01-04T02:10:11.772Z,7.82
2023-01-04T02:12:41.309Z,7.78
2023-01-04T02:15:10.089Z,8.43
2023-01-04T02:17:42.935Z,8.32
2023-01-04T02:20:26.557Z,8.13
2023-01-04T02:23:31.916Z,7.85
2023-01-04T02:26:41.539Z,7.97
2023-01-04T02:29:38.813Z,7.93
2023-01-04T02:32:12.507Z,7.97
2023-01-04T02:34:45.249Z,8.60
2023-01-04T02:37:19.620Z,7.93
2023-01-04T02:39:50.868Z,8.65
2023-01-04T02:42:23.907Z,8.63
2023-01-04T02:44:54.057Z,8.75
2023-01-04T02:47:45.958Z,8.27
2023-01-04T02:50:31.910Z,8.45
2023-01-04T02:53:02.134Z,8.70
2023-01-04T02:55:34.529Z,9.60
2023-01-04T02:58:07.816Z,9.00
2023-01-04T03:01:04.301Z,9.17
2023-01-04T03:04:14.704Z,9.15
2023-01-04T03:06:48.491Z,8.93
2023-01-04T03:09:20.261Z,9.27
2023-01-04T03:12:08.657Z,9.63
2023-01-04T03:14:40.624Z,8.47
2023-01-04T03:17:11.915Z,8.43
2023-01-04T03:19:55.834Z,8.68
2023-01-04T03:22:49.324Z,7.95
2023-01-04T03:25:37.785Z,9.18
2023-01-04T03:28:24.674Z,8.53
2023-01-04T03:31:16.605Z,8.40
2023-01-04T03:34:02.404Z,7.50
2023-01-04T03:36:41.653Z,7.72
2023-01-04T03:39:31.430Z,8.13
2023-01-04T03:42:19.618Z,6.53
2023-01-04T03:45:11.856Z,7.35
2023-01-04T03:48:00.646Z,6.68
2023-01-04T03:50:31.528Z,6.88
2023-01-04T03:53:01.529Z,7.07
2023-01-04T03:55:30.292Z,6.90
2023-01-04T03:57:59.190Z,6.82
2023-01-04T04:00:27.391Z,5.95
2023-01-04T04:03:07.022Z,6.78
2023-01-04T04:05:54.478Z,6.97
2023-01-04T04:08:28.369Z,6.83
2023-01-04T04:10:57.910Z,7.45
2023-01-04T04:13:26.090Z,7.30
2023-01-04T04:15:54.577Z,9.85
2023-01-04T04:18:22.816Z,8.15
2023-01-04T04:20:58.224Z,8.50
2023-01-04T04:23:27.744Z,7.32
2023-01-04T04:25:55.859Z,7.78
2023-01-04T04:28:24.162Z,8.10
2023-01-04T04:30:52.177Z,7.65
2023-01-04T04:33:20.370Z,9.70
2023-01-04T04:35:51.533Z,9.30
2023-01-04T04:38:19.939Z,9.43
2023-01-04T04:41:07.052Z,10.05
2023-01-04T04:43:35.554Z,10.13
2023-01-04T04:46:04.117Z,10.53
2023-01-04T04:48:32.413Z,10.45
2023-01-04T04:51:00.464Z,11.02
2023-01-04T04:53:28.606Z,12.25
2023-01-04T04:55:57.949Z,11.50
2023-01-04T04:58:26.109Z,11.57
2023-01-04T05:00:54.132Z,11.55
2023-01-04T05:03:22.629Z,11.20
2023-01-04T05:05:50.585Z,12.25
2023-01-04T05:08:18.830Z,11.35
2023-01-04T05:10:47.423Z,11.70
2023-01-04T05:13:15.932Z,10.93
2023-01-04T05:15:46.004Z,11.57
2023-01-04T05:18:16.477Z,11.80
2023-01-04T05:20:44.416Z,10.30
2023-01-04T05:23:14.376Z,10.90
2023-01-04T05:25:42.841Z,10.55
2023-01-04T05:28:11.301Z,11.32
2023-01-04T05:30:51.453Z,9.82
2023-01-04T05:33:21.049Z,10.90
2023-01-04T05:35:49.218Z,10.47
2023-01-04T05:38:18.028Z,11.30
2023-01-04T05:40:46.318Z,10.80
2023-01-04T05:43:14.852Z,10.57
2023-01-04T05:45:47.821Z,11.32
2023-01-04T05:48:16.067Z,11.27
2023-01-04T05:50:45.695Z,10.55
2023-01-04T05:53:14.686Z,10.75
2023-01-04T05:55:42.589Z,11.10
2023-01-04T05:58:10.771Z,10.65
2023-01-04T06:00:38.721Z,12.00
2023-01-04T06:03:08.419Z,11.10
2023-01-04T06:05:36.479Z,10.98
2023-01-04T06:08:04.788Z,11.73
2023-01-04T06:10:32.735Z,10.93
2023-01-04T06:13:00.951Z,10.30
2023-01-04T06:15:28.889Z,9.90
2023-01-04T06:17:57.139Z,10.70
2023-01-04T06:20:26.577Z,10.48
2023-01-04T06:22:54.765Z,10.10
2023-01-04T06:25:22.772Z,9.67
2023-01-04T06:27:50.903Z,9.40
2023-01-04T06:30:18.853Z,10.13
2023-01-04T06:32:47.266Z,9.90
2023-01-04T06:35:15.337Z,10.60
2023-01-04T06:37:44.927Z,9.67
2023-01-04T06:40:13.174Z,11.48
2023-01-04T06:42:47.190Z,9.90
2023-01-04T06:45:16.297Z,9.02
2023-01-04T06:47:44.785Z,9.52
2023-01-04T06:50:12.923Z,9.43
2023-01-04T06:52:41.315Z,9.40
2023-01-04T06:55:11.152Z,8.13
2023-01-04T06:57:39.371Z,8.02
2023-01-04T07:00:09.113Z,9.18
2023-01-04T07:02:37.757Z,8.10
2023-01-04T07:05:06.515Z,8.15
2023-01-04T07:07:35.521Z,8.60
2023-01-04T07:10:09.177Z,8.30
2023-01-04T07:12:39.778Z,8.75
2023-01-04T07:15:38.703Z,7.77
2023-01-04T07:17:57.024Z,7.80
2023-01-04T07:20:26.200Z,6.93
2023-01-04T07:22:54.640Z,6.57
2023-01-04T07:25:22.692Z,7.20
2023-01-04T07:27:56.079Z,6.93
2023-01-04T07:30:24.440Z,6.97
2023-01-04T07:32:53.783Z,7.07
2023-01-04T07:35:22.116Z,7.30
2023-01-04T07:37:57.437Z,6.97
2023-01-04T07:40:26.109Z,6.47
2023-01-04T07:42:59.438Z,6.47
2023-01-04T07:45:27.582Z,6.55
2023-01-04T07:47:55.837Z,6.22
2023-01-04T07:50:23.842Z,5.80
2023-01-04T07:52:52.245Z,5.83
2023-01-04T07:55:20.151Z,5.85
2023-01-04T07:57:48.457Z,5.57
2023-01-04T08:00:18.404Z,5.25
2023-01-04T08:02:46.768Z,6.40
2023-01-04T08:05:14.951Z,5.40
2023-01-04T08:07:45.179Z,5.82
2023-01-04T08:10:13.070Z,5.22
2023-01-04T08:12:41.264Z,4.97
2023-01-04T08:15:09.864Z,5.43
2023-01-04T08:17:39.381Z,5.30
2023-01-04T08:20:08.439Z,4.40
2023-01-04T08:22:36.624Z,4.82
2023-01-04T08:25:06.011Z,4.80
2023-01-04T08:27:34.516Z,4.68
2023-01-04T08:30:02.530Z,4.97
2023-01-04T08:32:31.787Z,4.40
2023-01-04T08:35:01.041Z,4.65
2023-01-04T08:37:31.368Z,4.07
2023-01-04T08:39:59.313Z,4.47
2023-01-04T08:42:31.615Z,4.27
2023-01-04T08:45:01.622Z,5.22
2023-01-04T08:47:30.997Z,4.60
2023-01-04T08:50:06.339Z,5.80
2023-01-04T08:52:37.949Z,5.22
2023-01-04T08:55:12.307Z,4.33
2023-01-04T08:57:41.632Z,3.63
2023-01-04T09:00:11.178Z,3.58
2023-01-04T09:02:39.492Z,3.65
2023-01-04T09:05:09.497Z,3.10
2023-01-04T09:07:37.818Z,2.53
2023-01-04T09:10:06.336Z,2.33
2023-01-04T09:12:34.595Z,3.13
2023-01-04T09:15:02.663Z,3.50
2023-01-04T09:17:30.850Z,2.15
2023-01-04T09:19:59.014Z,3.23
2023-01-04T09:22:28.760Z,3.72
2023-01-04T09:24:56.787Z,4.18
2023-01-04T09:27:24.956Z,5.32
2023-01-04T09:29:52.874Z,2.80
2023-01-04T09:32:21.138Z,2.63
2023-01-04T09:34:49.087Z,2.45
2023-01-04T09:37:17.345Z,2.00
2023-01-04T09:39:47.547Z,1.60
2023-01-04T09:42:19.068Z,1.77
2023-01-04T09:47:41.201Z,1.92
2023-01-04T09:50:14.782Z,1.50
2023-01-04T09:52:49.054Z,1.75
2023-01-04T09:55:39.375Z,1.40
2023-01-04T09:58:20.632Z,1.33
2023-01-04T10:00:51.154Z,1.52
2023-01-04T10:03:22.878Z,1.83
2023-01-04T10:05:51.358Z,1.90
2023-01-04T10:08:20.284Z,1.83
2023-01-04T10:10:55.368Z,1.57
2023-01-04T10:13:34.198Z,1.88
2023-01-04T10:16:09.097Z,1.58
2023-01-04T10:21:39.497Z,1.80
2023-01-04T10:24:18.644Z,1.87
2023-01-04T10:26:49.256Z,1.63
2023-01-04T10:29:35.636Z,2.15
2023-01-04T10:32:07.048Z,1.90
2023-01-04T10:34:40.328Z,1.85
2023-01-04T10:37:14.509Z,1.93
2023-01-04T10:39:43.110Z,2.17
2023-01-04T10:42:18.087Z,1.90
2023-01-04T10:44:56.030Z,1.80
2023-01-04T10:47:30.542Z,1.83
2023-01-04T10:50:01.785Z,1.83
2023-01-04T10:52:33.234Z,1.67
2023-01-04T10:55:05.528Z,1.90
2023-01-04T10:57:40.961Z,2.28
2023-01-04T11:00:13.249Z,2.13
2023-01-04T11:02:46.185Z,2.37
2023-01-04T11:05:20.722Z,2.70
2023-01-04T11:07:52.215Z,2.30
2023-01-04T11:10:25.269Z,2.28
2023-01-04T11:12:54.858Z,2.60
2023-01-04T11:15:23.133Z,2.00
2023-01-04T11:17:51.758Z,2.03
2023-01-04T11:20:23.832Z,2.40
2023-01-04T11:22:57.450Z,2.20
2023-01-04T11:25:35.491Z,2.45
2023-01-04T11:28:13.040Z,1.80
2023-01-04T11:30:47.792Z,1.92
2023-01-04T11:33:19.394Z,2.05
2023-01-04T11:35:49.896Z,1.80
2023-01-04T11:38:19.359Z,2.03
2023-01-04T11:40:59.502Z,2.10
2023-01-04T11:43:30.098Z,2.20
2023-01-04T11:46:01.541Z,1.98
2023-01-04T11:48:38.602Z,1.73
2023-01-04T11:51:10.113Z,2.28
2023-01-04T11:53:41.821Z,1.60
2023-01-04T11:56:16.060Z,1.70
2023-01-04T11:58:46.821Z,1.58
2023-01-04T12:01:23.443Z,1.42
2023-01-04T12:03:51.950Z,2.03
2023-01-04T12:06:23.780Z,1.70
2023-01-04T12:08:51.726Z,2.38
2023-01-04T12:11:25.115Z,2.47
2023-01-04T12:13:54.463Z,2.25
2023-01-04T12:16:30.967Z,1.98
2023-01-04T12:18:59.073Z,2.50
2023-01-04T12:21:27.723Z,2.38
2023-01-04T12:23:56.374Z,2.67
2023-01-04T12:26:24.633Z,3.20
2023-01-04T12:29:32.277Z,3.05
2023-01-04T12:32:34.053Z,2.57
2023-01-04T12:35:03.368Z,2.60
2023-01-04T12:37:52.264Z,2.53
2023-01-04T12:40:53.287Z,2.60
2023-01-04T12:43:26.614Z,1.70
2023-01-04T12:46:51.765Z,1.83
2023-01-04T12:49:45.326Z,2.33
2023-01-04T12:55:59.358Z,1.80
2023-01-04T13:02:18.238Z,1.80
2023-01-04T13:04:46.816Z,1.88
2023-01-04T13:07:19.686Z,1.60
2023-01-04T13:09:55.816Z,1.88
2023-01-04T13:12:54.072Z,1.98
2023-01-04T13:15:25.806Z,2.27
2023-01-04T13:17:54.238Z,1.80
2023-01-04T13:20:25.654Z,1.60
2023-01-04T13:22:55.840Z,1.52
2023-01-04T13:25:25.037Z,2.13
2023-01-04T13:28:03.355Z,1.60
2023-01-04T13:30:33.344Z,1.75
2023-01-04T13:33:27.326Z,1.80
2023-01-04T13:36:02.992Z,2.15
2023-01-04T13:38:32.837Z,3.70
2023-01-04T13:41:00.840Z,2.30
2023-01-04T13:43:43.832Z,2.75
2023-01-04T13:46:16.781Z,3.03
2023-01-04T13:48:47.702Z,3.00
2023-01-04T13:51:18.295Z,3.35
2023-01-04T13:53:54.363Z,2.87
2023-01-04T13:56:24.357Z,2.60
2023-01-04T13:58:53.995Z,2.00
2023-01-04T14:01:24.748Z,2.20
2023-01-04T14:03:55.282Z,2.25
2023-01-04T14:06:28.457Z,3.20
2023-01-04T14:09:02.083Z,2.38
2023-01-04T14:11:50.307Z,2.20
2023-01-04T14:14:30.135Z,2.40
2023-01-04T14:17:17.500Z,2.50
2023-01-04T14:19:48.361Z,2.37
2023-01-04T14:22:52.674Z,2.20
2023-01-04T14:25:44.719Z,2.78
2023-01-04T14:28:47.047Z,2.55
2023-01-04T14:31:39.657Z,2.15
2023-01-04T14:34:12.609Z,2.03
2023-01-04T14:36:42.131Z,1.98
2023-01-04T14:39:22.618Z,1.70
2023-01-04T14:41:57.437Z,1.85
2023-01-04T14:44:30.698Z,1.90
2023-01-04T14:47:01.718Z,2.53
2023-01-04T14:49:31.345Z,1.85
2023-01-04T14:52:01.157Z,1.70
2023-01-04T14:54:31.512Z,2.05
2023-01-04T14:57:00.789Z,2.53
2023-01-04T14:59:28.948Z,1.73
2023-01-04T15:01:58.462Z,2.35
2023-01-04T15:04:27.983Z,2.47
2023-01-04T15:06:58.377Z,2.00
2023-01-04T15:09:27.039Z,1.70
2023-01-04T15:11:55.726Z,1.40
2023-01-04T15:14:24.080Z,1.80
2023-01-04T15:16:52.389Z,2.00
2023-01-04T15:19:20.352Z,1.60
2023-01-04T15:21:49.864Z,1.75
2023-01-04T15:24:17.815Z,1.70
2023-01-04T15:26:46.040Z,2.30
2023-01-04T15:29:13.990Z,2.17
2023-01-04T15:31:43.746Z,1.70
2023-01-04T15:34:11.819Z,1.63
2023-01-04T15:36:41.079Z,2.10
2023-01-04T15:39:12.657Z,2.20
2023-01-04T15:41:58.611Z,1.95
2023-01-04T15:44:26.786Z,1.60
2023-01-04T15:46:55.500Z,1.80
2023-01-04T15:49:23.706Z,1.60
2023-01-04T15:51:51.841Z,1.70
2023-01-04T15:54:21.790Z,1.90
2023-01-04T15:56:50.259Z,1.95
2023-01-04T15:59:18.447Z,1.55
2023-01-04T16:01:47.495Z,1.60
2023-01-04T16:04:17.792Z,1.55
2023-01-04T16:06:45.931Z,1.80
2023-01-04T16:09:14.039Z,1.77
2023-01-04T16:11:57.532Z,1.60
2023-01-04T16:14:28.299Z,1.60
2023-01-04T16:16:56.572Z,1.60
2023-01-04T16:19:24.575Z,1.60
2023-01-04T16:21:52.888Z,1.38
2023-01-04T16:24:59.719Z,1.92
2023-01-04T16:27:10.677Z,1.80
2023-01-04T16:29:38.766Z,1.30
2023-01-04T16:32:07.670Z,1.38
2023-01-04T16:34:36.447Z,1.77
2023-01-04T16:37:04.836Z,1.63
2023-01-04T16:42:22.812Z,1.75
2023-01-04T16:44:50.834Z,1.70
2023-01-04T16:47:19.067Z,1.50
2023-01-04T16:49:51.687Z,1.83
2023-01-04T16:52:19.934Z,1.73
2023-01-04T16:54:47.954Z,1.58
2023-01-04T16:57:16.103Z,1.67
2023-01-04T16:59:45.353Z,1.90
2023-01-04T17:02:13.776Z,1.85
2023-01-04T17:04:41.959Z,1.60
2023-01-04T17:07:10.242Z,2.00
2023-01-04T17:09:41.027Z,1.80
2023-01-04T17:17:47.184Z,1.50
2023-01-04T17:20:15.335Z,1.45
2023-01-04T17:22:43.510Z,1.65
2023-01-04T17:25:11.739Z,1.80
2023-01-04T17:27:39.979Z,1.80
2023-01-04T17:30:10.819Z,1.73
2023-01-04T17:32:39.034Z,1.90
2023-01-04T17:35:07.277Z,1.70
2023-01-04T17:37:35.504Z,1.80
2023-01-04T17:40:03.653Z,1.70
2023-01-04T17:42:33.341Z,1.90
2023-01-04T17:45:01.236Z,1.80
2023-01-04T17:47:30.737Z,1.70
2023-01-04T17:49:58.729Z,1.80
2023-01-04T17:52:31.177Z,1.50
2023-01-04T17:54:59.565Z,2.00
2023-01-04T17:57:29.467Z,2.17
2023-01-04T17:59:57.425Z,1.55
2023-01-04T18:02:25.669Z,2.05
2023-01-04T18:04:55.266Z,1.60
2023-01-04T18:07:25.593Z,1.80
2023-01-04T18:09:54.486Z,1.90
2023-01-04T18:12:22.945Z,1.90
2023-01-04T18:14:50.975Z,1.63
2023-01-04T18:17:19.289Z,1.60
2023-01-04T18:19:47.310Z,1.90
2023-01-04T18:22:16.954Z,1.58
2023-01-04T18:24:44.863Z,1.90
2023-01-04T18:27:23.753Z,2.05
2023-01-04T18:29:54.027Z,2.10
2023-01-04T18:32:22.641Z,2.07
2023-01-04T18:34:50.593Z,1.90
2023-01-04T18:37:20.187Z,2.33
2023-01-04T18:39:51.000Z,2.58
2023-01-04T18:42:19.349Z,2.25
2023-01-04T18:44:49.621Z,1.93
2023-01-04T18:47:18.686Z,1.85
2023-01-04T18:49:46.636Z,2.15
2023-01-04T18:52:15.133Z,1.80
2023-01-04T18:54:44.954Z,2.38
2023-01-04T18:57:13.495Z,2.17
2023-01-04T18:59:41.643Z,2.55
2023-01-04T19:02:12.846Z,2.70
2023-01-04T19:04:40.943Z,2.17
2023-01-04T19:07:09.741Z,2.60
2023-01-04T19:09:39.312Z,2.27
2023-01-04T19:12:08.884Z,2.45
2023-01-04T19:14:36.970Z,2.67
2023-01-04T19:17:05.288Z,1.92
2023-01-04T19:19:33.966Z,2.70
2023-01-04T19:22:02.397Z,2.80
2023-01-04T19:24:30.346Z,2.67
2023-01-04T19:27:02.866Z,2.30
2023-01-04T19:29:33.812Z,1.98
2023-01-04T19:32:02.072Z,2.35
2023-01-04T19:34:30.106Z,2.50
2023-01-04T19:36:58.406Z,2.42
2023-01-04T19:39:26.338Z,3.05
2023-01-04T19:41:54.536Z,2.63
2023-01-04T19:44:22.629Z,3.05
2023-01-04T19:46:52.269Z,2.50
2023-01-04T19:49:20.215Z,3.00
2023-01-04T19:51:51.438Z,2.58
2023-01-04T19:54:25.176Z,2.67
2023-01-04T19:56:54.379Z,2.65
2023-01-04T19:59:22.636Z,3.00
2023-01-04T20:01:53.877Z,2.92
2023-01-04T20:04:22.021Z,2.55
2023-01-04T20:06:50.256Z,2.45
2023-01-04T20:09:24.707Z,2.45
2023-01-04T20:11:53.779Z,2.53
2023-01-04T20:14:22.152Z,2.30
2023-01-04T20:16:51.783Z,2.22
2023-01-04T20:19:19.975Z,2.42
2023-01-04T20:21:48.215Z,2.00
2023-01-04T20:24:16.169Z,1.93
2023-01-04T20:26:44.402Z,2.30
2023-01-04T20:29:12.388Z,1.92
2023-01-04T20:31:45.510Z,2.25
2023-01-04T20:34:15.478Z,2.17
2023-01-04T20:36:43.638Z,1.57
2023-01-04T20:39:11.625Z,1.83
2023-01-04T20:42:00.070Z,2.28
2023-01-04T20:44:27.369Z,1.90
2023-01-04T20:46:55.756Z,1.80
2023-01-04T20:49:25.134Z,1.90
2023-01-04T20:51:53.375Z,2.03
2023-01-04T20:54:21.279Z,2.08
2023-01-04T20:56:49.548Z,2.35
2023-01-04T20:59:17.662Z,2.28
2023-01-04T21:01:45.961Z,2.63
2023-01-04T21:04:16.125Z,1.95
2023-01-04T21:06:45.704Z,2.55
2023-01-04T21:09:13.852Z,2.22
2023-01-04T21:11:42.171Z,1.92
2023-01-04T21:14:11.751Z,2.03
2023-01-04T21:16:41.819Z,2.15
2023-01-04T21:19:09.835Z,2.13
2023-01-04T21:21:38.098Z,1.90
2023-01-04T21:24:08.058Z,2.20
2023-01-04T21:26:36.270Z,2.43
2023-01-04T21:29:04.513Z,2.10
2023-01-04T21:31:32.883Z,1.90
2023-01-04T21:34:00.901Z,1.52
2023-01-04T21:36:29.773Z,1.83
2023-01-04T21:38:58.814Z,1.43
2023-01-04T21:41:28.411Z,1.48
2023-01-04T21:43:58.078Z,1.33
2023-01-04T21:46:27.154Z,1.20
2023-01-04T21:48:56.129Z,1.75
2023-01-04T21:51:24.807Z,1.43
2023-01-04T21:53:53.834Z,1.85
2023-01-04T21:56:23.664Z,1.55
2023-01-04T21:58:52.938Z,1.40
2023-01-04T22:01:22.513Z,1.60
2023-01-04T22:03:50.740Z,1.23
2023-01-04T22:06:19.119Z,1.25
2023-01-04T22:08:47.193Z,1.40
2023-01-04T22:11:16.420Z,1.30
2023-01-04T22:13:45.157Z,1.30
2023-01-04T22:16:16.226Z,1.80
2023-01-04T22:18:47.252Z,1.23
2023-01-04T22:21:17.077Z,1.30
2023-01-04T22:23:45.157Z,1.40
2023-01-04T22:26:13.286Z,1.77
2023-01-04T22:28:41.490Z,1.50
2023-01-04T22:31:11.565Z,1.42
2023-01-04T22:33:41.369Z,1.38
2023-01-04T22:36:19.085Z,1.27
2023-01-04T22:38:49.828Z,1.75
2023-01-04T22:41:18.952Z,1.20
2023-01-04T22:43:46.984Z,1.60
2023-01-04T22:46:17.170Z,1.48
2023-01-04T22:48:46.914Z,1.17
2023-01-04T22:51:17.459Z,1.60
2023-01-04T22:53:45.973Z,1.20
2023-01-04T22:56:21.002Z,1.42
2023-01-04T22:58:53.322Z,1.23
2023-01-04T23:01:22.577Z,1.23
2023-01-04T23:03:52.667Z,1.50
2023-01-04T23:06:21.856Z,1.40
2023-01-04T23:08:54.576Z,1.67
2023-01-04T23:11:22.841Z,1.52
2023-01-04T23:13:50.911Z,1.70
2023-01-04T23:16:19.257Z,1.10
2023-01-04T23:18:47.817Z,1.40
2023-01-04T23:21:17.606Z,1.40
2023-01-04T23:23:49.169Z,1.55
2023-01-04T23:26:19.575Z,1.67
2023-01-04T23:28:48.320Z,1.52
2023-01-04T23:31:19.258Z,1.47
2023-01-04T23:33:47.662Z,1.40
2023-01-04T23:36:18.479Z,1.58
2023-01-04T23:38:50.655Z,1.80
2023-01-04T23:41:18.938Z,1.38
2023-01-04T23:43:46.912Z,1.47
2023-01-04T23:46:16.686Z,1.17
2023-01-04T23:48:45.280Z,1.25
2023-01-04T23:51:13.631Z,1.13
2023-01-04T23:53:42.891Z,1.40
2023-01-04T23:56:15.853Z,1.40
2023-01-04T23:58:43.777Z,1.20
